Time;durP1;ratioP1;P1;durP2;ratioP2;P2;SDS_P1;SDS_P2;PMS_P1;PMS_P2;Temp;Humidity;BMP_temperature;BMP_pressure;BME280_temperature;BME280_humidity;BME280_pressure;Samples;Min_cycle;Max_cycle;Signal;HPM_P1;HPM_P2
2023/06/19 00:00:00;;;;;;;;;10.80;9.80;;;;;21.02;40.53;99329.38;4893248;29;8875;-86
2023/06/19 00:02:30;;;;;;;;;18.60;18.60;;;;;21.02;40.41;99332.06;4891103;29;8890;-86
2023/06/19 00:05:00;;;;;;;;;17.80;17.00;;;;;20.96;40.43;99327.97;4872562;29;9602;-88
2023/06/19 00:07:28;;;;;;;;;18.80;17.00;;;;;20.94;40.23;99323.72;4837952;29;8985;-87
2023/06/19 00:09:57;;;;;;;;;23.60;21.80;;;;;21.01;40.57;99333.00;4838591;29;9062;-86
2023/06/19 00:12:48;;;;;;;;;20.60;18.80;;;;;21.02;40.41;99329.38;4921988;29;8870;-88
2023/06/19 00:15:18;;;;;;;;;17.00;17.00;;;;;20.99;40.52;99330.47;4919428;29;8877;-87
2023/06/19 00:18:07;;;;;;;;;18.80;18.20;;;;;20.98;40.06;99331.41;4864529;29;8969;-89
2023/06/19 00:20:39;;;;;;;;;17.40;17.40;;;;;20.96;40.18;99321.78;4932197;28;8899;-88
2023/06/19 00:23:11;;;;;;;;;16.40;15.20;;;;;20.94;40.31;99329.06;4934435;28;8859;-91
2023/06/19 00:25:41;;;;;;;;;16.20;16.20;;;;;20.90;40.25;99331.03;4952534;28;8849;-89
2023/06/19 00:28:14;;;;;;;;;15.80;15.80;;;;;20.92;40.25;99325.59;4935285;28;8864;-86
2023/06/19 00:30:44;;;;;;;;;16.20;16.00;;;;;20.93;40.49;99322.00;4951797;28;8956;-89
2023/06/19 00:33:15;;;;;;;;;19.00;17.60;;;;;20.91;40.13;99322.06;4920057;28;10124;-89
2023/06/19 00:35:45;;;;;;;;;22.60;22.60;;;;;20.93;40.29;99320.16;4944677;28;8889;-91
2023/06/19 00:38:14;;;;;;;;;17.80;17.40;;;;;20.90;40.37;99323.03;4959066;28;9049;-92
2023/06/19 00:40:43;;;;;;;;;17.60;15.60;;;;;20.90;40.26;99323.03;4956661;28;8849;-88
2023/06/19 00:43:15;;;;;;;;;18.40;16.60;;;;;20.88;39.97;99320.47;4889257;29;8861;-87
2023/06/19 00:45:45;;;;;;;;;17.60;17.20;;;;;20.82;40.36;99322.66;4903649;29;8901;-88
2023/06/19 00:48:17;;;;;;;;;19.40;19.00;;;;;20.79;40.44;99313.06;4936972;28;8891;-89
2023/06/19 00:50:46;;;;;;;;;17.80;17.80;;;;;20.77;40.39;99309.63;4956437;28;8907;-87
2023/06/19 00:53:15;;;;;;;;;17.80;16.40;;;;;20.76;40.61;99310.59;4968806;28;8889;-89
2023/06/19 00:55:46;;;;;;;;;17.00;16.20;;;;;20.79;40.38;99312.22;4994475;28;8911;-87
2023/06/19 01:01:38;;;;;;;;;21.80;19.40;;;;;20.79;40.21;99310.38;4942614;29;8917;-87
2023/06/19 01:04:07;;;;;;;;;15.40;15.40;;;;;20.74;40.50;99303.63;4918973;29;9720;-89
2023/06/19 01:06:45;;;;;;;;;18.40;18.20;;;;;20.84;40.58;99308.28;4915951;29;8893;-87
2023/06/19 01:09:18;;;;;;;;;18.00;17.60;;;;;20.77;40.31;99309.63;4900199;29;8871;-90
2023/06/19 01:11:53;;;;;;;;;19.60;16.20;;;;;20.77;40.47;99314.97;4918459;28;8875;-91
2023/06/19 01:14:28;;;;;;;;;17.40;17.40;;;;;20.78;40.66;99310.47;4919358;28;8952;-90
2023/06/19 01:16:57;;;;;;;;;18.20;17.60;;;;;20.68;40.65;99304.91;4945781;28;8867;-89
2023/06/19 01:19:28;;;;;;;;;16.20;15.60;;;;;20.63;40.47;99307.03;4986144;28;8859;-86
2023/06/19 01:21:57;;;;;;;;;17.80;16.20;;;;;20.62;40.55;99300.84;4954365;28;8929;-89
2023/06/19 01:24:30;;;;;;;;;20.20;16.60;;;;;20.52;40.85;99307.75;4954459;28;9683;-89
2023/06/19 01:27:00;;;;;;;;;20.00;19.80;;;;;20.45;40.72;99306.44;4954989;28;8901;-85
2023/06/19 01:29:29;;;;;;;;;17.20;17.00;;;;;20.49;40.59;99303.47;4954689;28;8863;-88
2023/06/19 01:32:05;;;;;;;;;18.80;18.00;;;;;20.52;40.81;99305.09;4985907;28;8851;-87
2023/06/19 01:34:36;;;;;;;;;16.60;16.40;;;;;20.48;40.41;99304.44;4991236;28;8930;-88
2023/06/19 01:37:12;;;;;;;;;16.00;14.40;;;;;20.53;40.83;99300.59;4975551;28;8884;-89
2023/06/19 01:39:49;;;;;;;;;16.60;16.60;;;;;20.51;40.48;99305.19;5002888;28;8879;-87
2023/06/19 01:42:19;;;;;;;;;15.80;15.80;;;;;20.46;40.99;99305.47;4976479;28;8872;-89
2023/06/19 01:44:48;;;;;;;;;22.20;19.40;;;;;20.45;40.91;99301.94;5015004;28;8841;-87
2023/06/19 01:47:23;;;;;;;;;16.80;16.80;;;;;20.46;40.96;99300.13;5016386;28;8852;-90
2023/06/19 01:49:52;;;;;;;;;17.00;15.60;;;;;20.46;40.66;99302.81;5000176;28;8845;-90
2023/06/19 01:52:22;;;;;;;;;17.40;15.80;;;;;20.42;41.02;99299.47;5002114;28;8870;-90
2023/06/19 01:54:57;;;;;;;;;12.80;12.60;;;;;20.37;40.56;99290.06;5000050;28;8880;-87
2023/06/19 01:57:28;;;;;;;;;15.60;14.40;;;;;20.32;40.49;99297.53;5024146;28;8840;-90
2023/06/19 01:59:56;;;;;;;;;15.40;15.40;;;;;20.29;40.60;99302.13;5067843;28;8876;-87
2023/06/19 02:02:26;;;;;;;;;17.00;17.00;;;;;20.24;40.37;99298.03;5064553;28;8852;-87
2023/06/19 02:04:55;;;;;;;;;19.00;16.80;;;;;20.23;40.63;99299.81;5031835;28;8872;-89
2023/06/19 02:07:26;;;;;;;;;16.20;16.20;;;;;20.28;40.64;99296.88;4997867;28;8848;-90
2023/06/19 02:09:55;;;;;;;;;16.60;16.20;;;;;20.27;40.51;99303.16;5031296;28;8953;-88
2023/06/19 02:12:26;;;;;;;;;18.00;17.60;;;;;20.32;40.22;99302.88;5020504;28;8869;-88
2023/06/19 02:14:57;;;;;;;;;17.00;14.40;;;;;20.33;40.26;99302.78;5040363;28;8853;-90
2023/06/19 02:17:26;;;;;;;;;17.80;12.80;;;;;20.35;40.12;99305.31;5027920;28;8888;-88
2023/06/19 02:19:55;;;;;;;;;14.00;14.00;;;;;20.32;40.19;99295.72;5051970;28;8951;-86
2023/06/19 02:22:25;;;;;;;;;17.80;16.00;;;;;20.36;39.90;99296.38;5045324;28;8950;-87
2023/06/19 02:24:55;;;;;;;;;13.80;13.80;;;;;20.35;40.27;99292.84;5012115;28;8958;-85
2023/06/19 02:27:26;;;;;;;;;17.20;16.60;;;;;20.36;40.34;99299.03;5013283;28;8863;-86
2023/06/19 02:29:55;;;;;;;;;15.60;14.60;;;;;20.36;40.03;99304.38;5023772;28;8867;-86
2023/06/19 02:32:25;;;;;;;;;14.20;13.60;;;;;20.33;39.90;99299.22;5006918;28;8990;-88
2023/06/19 02:34:56;;;;;;;;;16.20;14.80;;;;;20.31;40.07;99302.00;5004597;28;8883;-88
2023/06/19 02:37:26;;;;;;;;;16.80;15.60;;;;;20.22;40.34;99302.59;5000241;28;8969;-88
2023/06/19 02:39:55;;;;;;;;;16.60;15.20;;;;;20.24;40.45;99308.72;5030940;28;8976;-87
2023/06/19 02:42:26;;;;;;;;;14.80;12.20;;;;;20.24;40.16;99298.03;5012970;28;9676;-88
2023/06/19 02:45:02;;;;;;;;;15.20;15.20;;;;;20.22;40.27;99303.44;4996951;28;8883;-89
2023/06/19 02:47:34;;;;;;;;;18.40;16.80;;;;;20.23;40.08;99299.81;4980516;28;8878;-87
2023/06/19 02:50:05;;;;;;;;;17.40;15.60;;;;;20.24;40.40;99303.38;4995893;28;8882;-89
2023/06/19 02:52:34;;;;;;;;;17.00;17.00;;;;;20.26;40.28;99299.63;5012559;28;8881;-89
2023/06/19 02:55:04;;;;;;;;;17.00;14.40;;;;;20.24;40.03;99290.88;4997627;28;8940;-90
2023/06/19 02:57:34;;;;;;;;;13.60;13.60;;;;;20.25;40.04;99297.91;5026154;28;8932;-91
2023/06/19 03:00:06;;;;;;;;;16.20;15.00;;;;;20.26;40.35;99299.63;4972290;28;8982;-89
2023/06/19 03:02:36;;;;;;;;;12.60;12.60;;;;;20.27;39.93;99296.03;4969579;28;9643;-89
2023/06/19 03:05:06;;;;;;;;;15.60;13.60;;;;;20.25;40.21;99299.72;4938281;28;8881;-88
2023/06/19 03:07:36;;;;;;;;;14.80;14.60;;;;;20.24;40.15;99298.88;4938643;28;9502;-89
2023/06/19 03:10:05;;;;;;;;;15.60;15.40;;;;;20.31;40.04;99296.66;4953691;28;9766;-91
2023/06/19 03:12:37;;;;;;;;;15.40;15.00;;;;;20.29;39.77;99295.91;4951264;28;8879;-89
2023/06/19 03:15:07;;;;;;;;;16.60;16.60;;;;;20.27;39.85;99295.16;4989029;28;8887;-91
2023/06/19 03:17:41;;;;;;;;;14.40;13.80;;;;;20.31;39.84;99304.66;4965051;28;8872;-86
2023/06/19 03:20:13;;;;;;;;;15.40;13.40;;;;;20.38;40.36;99303.31;5009343;28;8888;-85
2023/06/19 03:22:49;;;;;;;;;17.80;16.20;;;;;20.37;39.73;99293.59;4989609;28;8849;-87
2023/06/19 03:25:19;;;;;;;;;82.00;77.50;;;;;20.46;39.94;99298.34;4961302;28;9678;-86
2023/06/19 03:27:51;;;;;;;;;43.00;36.75;;;;;20.47;40.17;99296.50;4979315;28;10465;-88
2023/06/19 03:30:20;;;;;;;;;21.00;20.20;;;;;20.53;39.99;99301.44;4980274;28;8888;-87
2023/06/19 03:32:53;;;;;;;;;16.80;16.80;;;;;20.60;39.65;99300.09;5015646;28;8862;-88
2023/06/19 03:35:45;;;;;;;;;13.20;11.40;;;;;20.64;39.52;99306.06;4936002;29;9695;-87
2023/06/19 03:38:25;;;;;;;;;17.40;16.00;;;;;20.68;39.47;99305.75;4937768;29;9031;-87
2023/06/19 03:40:56;;;;;;;;;17.40;17.40;;;;;20.74;39.79;99308.97;4934900;29;8916;-87
2023/06/19 03:43:28;;;;;;;;;17.80;17.80;;;;;20.80;39.45;99309.44;4907127;29;8898;-92
2023/06/19 03:45:59;;;;;;;;;17.20;16.60;;;;;20.83;38.95;99305.69;4902071;29;8919;-87
2023/06/19 03:48:29;;;;;;;;;17.80;17.80;;;;;20.93;39.23;99311.31;4919424;29;8878;-88
2023/06/19 03:51:18;;;;;;;;;16.80;15.40;;;;;21.00;38.99;99308.09;4916984;29;8886;-86
2023/06/19 03:53:47;;;;;;;;;17.40;16.00;;;;;21.09;38.89;99316.44;4898552;29;8870;-87
2023/06/19 03:56:18;;;;;;;;;17.60;16.20;;;;;21.03;38.98;99315.91;4839392;29;8890;-86
2023/06/19 03:58:49;;;;;;;;;17.60;15.80;;;;;21.12;38.65;99311.75;4897677;29;9071;-88
2023/06/19 04:01:18;;;;;;;;;12.40;11.80;;;;;21.17;38.58;99319.47;4895628;29;8877;-85
2023/06/19 04:03:49;;;;;;;;;18.00;16.80;;;;;21.29;38.69;99313.25;4879759;29;8931;-87
2023/06/19 04:06:19;;;;;;;;;59.00;46.75;;;;;21.37;38.31;99312.72;4918740;29;8930;-87
2023/06/19 04:08:49;;;;;;;;;19.40;19.40;;;;;21.44;38.54;99317.53;4948224;28;8856;-87
2023/06/19 04:11:18;;;;;;;;;17.80;17.80;;;;;21.51;38.28;99314.44;4948473;28;8892;-87
2023/06/19 04:13:49;;;;;;;;;14.80;14.00;;;;;21.61;38.27;99312.84;4981024;28;8854;-86
2023/06/19 04:16:19;;;;;;;;;19.20;16.20;;;;;21.60;37.67;99316.50;4953634;28;9659;-87
2023/06/19 04:18:49;;;;;;;;;17.80;17.60;;;;;21.68;37.85;99319.47;4970075;28;8863;-87
2023/06/19 04:21:18;;;;;;;;;14.60;14.60;;;;;21.77;37.56;99326.84;4986484;28;8875;-88
2023/06/19 04:23:48;;;;;;;;;22.00;18.40;;;;;21.89;37.57;99327.78;5023444;28;8904;-85
2023/06/19 04:26:17;;;;;;;;;54.00;44.50;;;;;21.98;37.38;99324.47;5006602;28;9623;-85
2023/06/19 04:28:46;;;;;;;;;18.60;16.60;;;;;22.02;36.82;99323.25;5023673;28;8946;-89
2023/06/19 04:31:18;;;;;;;;;19.80;19.00;;;;;22.14;36.84;99326.88;4979557;28;8869;-87
2023/06/19 04:33:48;;;;;;;;;17.00;14.80;;;;;22.20;36.62;99330.91;5021736;28;8853;-87
2023/06/19 04:36:19;;;;;;;;;16.80;16.60;;;;;22.27;36.09;99324.19;5009889;28;9521;-87
2023/06/19 04:38:51;;;;;;;;;18.00;18.00;;;;;22.34;36.12;99322.78;5006752;28;8879;-88
2023/06/19 04:41:21;;;;;;;;;69.67;56.67;;;;;22.42;36.37;99327.56;5023229;28;8849;-87
2023/06/19 04:43:51;;;;;;;;;21.00;19.20;;;;;22.55;36.07;99322.16;5006024;28;9034;-87
2023/06/19 04:46:22;;;;;;;;;7.00;6.80;;;;;22.55;35.37;99317.63;4990823;28;8861;-88
2023/06/19 04:48:52;;;;;;;;;19.80;19.00;;;;;22.65;35.60;99322.31;4952969;28;8867;-84
2023/06/19 04:51:21;;;;;;;;;20.80;19.60;;;;;22.82;35.35;99321.88;4959212;28;9010;-86
2023/06/19 04:53:52;;;;;;;;;19.80;19.00;;;;;22.96;35.04;99326.25;4957578;28;8995;-84
2023/06/19 04:56:21;;;;;;;;;19.60;18.60;;;;;23.09;34.62;99323.47;4956260;28;9029;-87
2023/06/19 04:58:51;;;;;;;;;16.80;16.80;;;;;23.07;34.82;99325.41;4915856;29;8851;-86
2023/06/19 05:01:27;;;;;;;;;16.20;16.20;;;;;23.24;34.48;99327.63;4931278;29;9663;-85
2023/06/19 05:03:59;;;;;;;;;17.40;17.40;;;;;23.43;34.74;99331.56;4918113;29;8863;-85
2023/06/19 05:06:28;;;;;;;;;20.20;20.20;;;;;23.51;33.80;99326.47;4944949;29;8875;-86
2023/06/19 05:11:45;;;;;;;;;17.00;17.00;;;;;23.78;33.91;99331.50;4959372;28;8887;-85
2023/06/19 05:14:15;;;;;;;;;16.00;16.00;;;;;23.80;33.70;99334.06;4930170;29;8914;-87
2023/06/19 05:16:45;;;;;;;;;15.80;15.80;;;;;23.85;33.83;99338.09;4930906;29;9613;-88
2023/06/19 05:19:18;;;;;;;;;15.40;15.40;;;;;23.90;33.65;99343.09;4930762;29;9014;-86
2023/06/19 05:21:47;;;;;;;;;15.00;15.00;;;;;23.98;33.02;99337.97;4947459;28;8859;-86
2023/06/19 05:24:16;;;;;;;;;17.60;16.00;;;;;23.78;33.59;99348.47;4930522;29;9942;-85
2023/06/19 05:26:45;;;;;;;;;18.40;16.60;;;;;23.86;33.88;99349.69;4947204;28;8969;-86
2023/06/19 05:29:16;;;;;;;;;18.40;17.80;;;;;23.96;33.70;99356.88;4953130;28;8892;-85
2023/06/19 05:31:46;;;;;;;;;18.40;17.20;;;;;24.15;33.60;99353.59;4969861;28;8862;-86
2023/06/19 05:34:15;;;;;;;;;18.00;16.00;;;;;24.30;33.59;99354.19;5007649;28;8905;-85
2023/06/19 05:36:46;;;;;;;;;14.20;14.20;;;;;24.27;33.14;99356.28;4960197;28;9704;-85
2023/06/19 05:39:18;;;;;;;;;17.80;15.00;;;;;24.32;33.08;99360.28;4992700;28;8874;-87
2023/06/19 05:41:47;;;;;;;;;17.40;15.60;;;;;24.40;33.18;99365.03;4992995;28;8869;-86
2023/06/19 05:44:18;;;;;;;;;10.60;10.60;;;;;24.54;32.82;99367.41;5001768;28;8876;-85
2023/06/19 05:46:49;;;;;;;;;17.00;17.00;;;;;24.69;32.90;99370.69;4964383;28;8914;-84
2023/06/19 05:49:18;;;;;;;;;17.40;17.40;;;;;24.60;32.46;99365.22;4980835;28;8889;-84
2023/06/19 05:51:47;;;;;;;;;20.80;19.40;;;;;24.61;32.51;99370.47;4938006;28;8860;-85
2023/06/19 05:54:17;;;;;;;;;13.60;13.60;;;;;24.79;32.56;99365.41;4971075;28;8914;-87
2023/06/19 05:56:47;;;;;;;;;16.20;15.60;;;;;24.97;32.37;99371.09;4971616;28;8876;-85
2023/06/19 05:59:16;;;;;;;;;19.20;19.00;;;;;24.96;32.35;99374.75;4971838;28;8877;-84
2023/06/19 06:01:45;;;;;;;;;20.20;20.20;;;;;24.70;32.77;99377.78;4970691;28;8860;-85
2023/06/19 06:04:16;;;;;;;;;21.20;21.20;;;;;24.80;32.71;99369.81;4986604;28;8845;-86
2023/06/19 06:06:46;;;;;;;;;17.60;16.20;;;;;24.61;33.04;99373.16;4967898;28;8945;-83
2023/06/19 06:09:16;;;;;;;;;15.80;15.80;;;;;24.79;33.02;99375.31;4968058;28;8851;-86
2023/06/19 06:11:47;;;;;;;;;13.80;13.80;;;;;24.70;32.81;99379.63;4967397;28;9002;-84
2023/06/19 06:14:16;;;;;;;;;15.80;15.60;;;;;24.72;32.57;99377.66;4967221;28;8887;-85
2023/06/19 06:16:47;;;;;;;;;17.80;16.40;;;;;24.77;33.36;99388.88;4967568;28;9040;-84
2023/06/19 06:19:19;;;;;;;;;18.40;17.20;;;;;24.69;32.95;99388.66;4967421;28;8875;-86
2023/06/19 06:21:49;;;;;;;;;19.60;17.60;;;;;24.68;33.67;99393.19;4967448;28;9021;-85
2023/06/19 06:24:18;;;;;;;;;16.40;16.20;;;;;25.05;33.73;99384.75;4984888;28;8866;-83
2023/06/19 06:26:47;;;;;;;;;12.20;12.20;;;;;25.28;32.94;99398.09;5009537;28;8866;-85
2023/06/19 06:29:18;;;;;;;;;18.80;18.80;;;;;25.34;32.47;99394.03;5007820;28;8867;-85
2023/06/19 06:31:48;;;;;;;;;15.00;15.00;;;;;25.57;32.41;99397.44;5008977;28;8850;-85
2023/06/19 06:34:22;;;;;;;;;15.40;15.40;;;;;25.04;32.76;99401.00;4991348;28;8851;-85
2023/06/19 06:36:52;;;;;;;;;17.00;16.60;;;;;25.23;32.59;99403.88;5007328;28;8850;-84
2023/06/19 06:39:34;;;;;;;;;19.60;19.00;;;;;25.03;33.86;99400.16;4991960;28;8981;-85
2023/06/19 06:42:03;;;;;;;;;16.60;15.80;;;;;24.50;33.90;99402.75;4986083;28;8853;-85
2023/06/19 06:44:34;;;;;;;;;15.40;15.00;;;;;24.32;34.20;99405.97;4986493;28;8956;-86
2023/06/19 06:47:04;;;;;;;;;18.20;16.40;;;;;24.50;33.99;99402.75;4970611;28;8850;-84
2023/06/19 06:49:36;;;;;;;;;16.20;16.00;;;;;24.52;33.68;99407.00;4971031;28;8866;-86
2023/06/19 06:52:05;;;;;;;;;18.20;17.60;;;;;24.16;34.76;99413.53;4989815;28;8848;-85
2023/06/19 06:54:35;;;;;;;;;21.20;18.80;;;;;23.99;35.15;99411.31;5001352;28;8843;-83
2023/06/19 06:57:05;;;;;;;;;14.60;14.40;;;;;24.27;34.76;99410.84;5015259;28;8874;-86
2023/06/19 06:59:34;;;;;;;;;15.20;14.60;;;;;24.75;34.40;99409.66;5011504;28;8850;-87
2023/06/19 07:02:03;;;;;;;;;14.40;13.60;;;;;25.22;33.04;99410.22;4994634;28;8870;-84
2023/06/19 07:04:34;;;;;;;;;17.80;17.00;;;;;24.27;34.19;99415.38;5011683;28;8862;-84
2023/06/19 07:07:05;;;;;;;;;16.80;16.00;;;;;23.64;34.93;99418.50;5014463;28;8870;-85
2023/06/19 07:09:34;;;;;;;;;19.20;18.40;;;;;23.56;35.00;99421.78;4995981;28;9618;-86
2023/06/19 07:12:04;;;;;;;;;19.00;18.40;;;;;23.31;35.92;99420.06;4993664;28;8912;-84
2023/06/19 07:14:33;;;;;;;;;20.80;17.20;;;;;23.63;34.56;99424.81;5017473;28;8860;-84
2023/06/19 07:17:02;;;;;;;;;19.80;18.80;;;;;23.59;35.62;99423.34;5032747;28;8878;-83
2023/06/19 07:19:32;;;;;;;;;19.00;18.20;;;;;23.35;35.98;99424.22;5016161;28;8998;-85
2023/06/19 07:22:03;;;;;;;;;24.20;20.60;;;;;23.35;36.18;99423.38;5033484;28;8851;-85
2023/06/19 07:24:32;;;;;;;;;19.00;15.80;;;;;24.13;34.54;99421.81;5016633;28;8924;-84
2023/06/19 07:27:01;;;;;;;;;14.40;11.60;;;;;24.57;33.42;99416.56;5029677;28;9719;-85
2023/06/19 07:29:51;;;;;;;;;19.80;19.80;;;;;24.59;33.49;99417.28;5011944;28;8876;-84
2023/06/19 07:32:20;;;;;;;;;18.40;18.40;;;;;25.12;33.40;99426.28;5028619;28;8953;-85
2023/06/19 07:34:49;;;;;;;;;18.60;18.00;;;;;25.44;32.64;99430.81;5026879;28;9658;-83
2023/06/19 07:37:20;;;;;;;;;19.40;17.80;;;;;25.56;31.99;99431.59;5010221;28;8982;-83
2023/06/19 07:39:51;;;;;;;;;16.40;16.40;;;;;25.41;31.96;99430.22;5025449;28;8891;-84
2023/06/19 07:42:20;;;;;;;;;21.60;20.00;;;;;24.67;33.11;99431.78;5009392;28;8847;-85
2023/06/19 07:44:52;;;;;;;;;18.20;17.20;;;;;24.73;32.20;99435.81;5008417;28;8983;-86
2023/06/19 07:47:21;;;;;;;;;17.00;17.00;;;;;25.16;32.09;99440.34;5008826;28;8854;-84
2023/06/19 07:49:52;;;;;;;;;20.40;20.00;;;;;25.29;30.77;99443.69;5026990;28;8875;-85
2023/06/19 07:52:22;;;;;;;;;19.20;18.80;;;;;24.98;31.97;99447.25;5010208;28;8908;-87
2023/06/19 07:54:54;;;;;;;;;15.40;15.40;;;;;25.57;31.12;99445.91;4994098;28;8889;-86
2023/06/19 07:57:24;;;;;;;;;17.40;16.60;;;;;24.85;32.37;99447.41;4993143;28;8839;-84
2023/06/19 07:59:55;;;;;;;;;19.00;18.60;;;;;24.15;32.88;99449.44;4992956;28;8913;-82
2023/06/19 08:02:24;;;;;;;;;18.20;18.00;;;;;24.09;33.42;99456.13;5011016;28;8877;-85
2023/06/19 08:04:53;;;;;;;;;18.80;17.80;;;;;24.87;32.69;99448.16;5025361;28;9677;-84
2023/06/19 08:07:23;;;;;;;;;17.60;16.20;;;;;25.13;32.12;99449.53;5012445;28;8868;-84
2023/06/19 08:09:53;;;;;;;;;18.80;18.20;;;;;25.36;31.48;99443.19;5031060;28;8842;-85
2023/06/19 08:12:39;;;;;;;;;18.00;17.20;;;;;25.55;31.34;99450.56;5015493;28;8866;-83
2023/06/19 08:15:09;;;;;;;;;17.40;15.60;;;;;25.82;30.86;99455.44;5042877;28;8867;-84
2023/06/19 08:17:38;;;;;;;;;19.00;18.40;;;;;26.20;31.07;99449.41;5034484;28;8881;-83
2023/06/19 08:20:09;;;;;;;;;19.00;18.40;;;;;26.51;30.12;99448.56;5013192;28;8867;-84
2023/06/19 08:22:40;;;;;;;;;20.60;18.20;;;;;26.65;30.21;99456.25;4991741;28;8969;-84
2023/06/19 08:25:09;;;;;;;;;17.60;17.60;;;;;26.93;30.22;99451.03;5007915;28;8883;-84
2023/06/19 08:27:38;;;;;;;;;19.00;16.40;;;;;27.10;30.64;99454.91;5007997;28;8862;-86
2023/06/19 08:30:08;;;;;;;;;17.80;17.00;;;;;27.28;30.22;99450.53;4991938;28;8944;-85
2023/06/19 08:32:37;;;;;;;;;19.60;19.20;;;;;27.46;29.75;99453.38;5007827;28;8858;-87
2023/06/19 08:35:07;;;;;;;;;17.00;17.00;;;;;25.94;32.47;99445.44;5007830;28;8859;-83
2023/06/19 08:37:36;;;;;;;;;15.80;15.00;;;;;25.81;32.41;99445.63;4997639;28;9212;-86
2023/06/19 08:40:09;;;;;;;;;15.20;15.20;;;;;25.59;32.33;99443.97;5016288;28;8860;-83
2023/06/19 08:42:39;;;;;;;;;18.00;17.00;;;;;25.57;31.82;99446.78;4969174;28;8852;-84
2023/06/19 08:45:09;;;;;;;;;19.60;18.80;;;;;25.31;32.44;99441.72;4945232;28;8848;-84
2023/06/19 08:47:41;;;;;;;;;19.00;18.20;;;;;25.23;31.49;99440.69;5006864;28;8876;-86
2023/06/19 08:50:11;;;;;;;;;18.00;16.00;;;;;25.69;29.95;99444.84;5003765;28;8934;-85
2023/06/19 08:52:40;;;;;;;;;15.80;15.40;;;;;25.90;30.19;99437.63;5009672;28;9646;-83
2023/06/19 08:55:11;;;;;;;;;16.80;16.20;;;;;26.06;30.27;99439.84;5025029;28;8878;-85
2023/06/19 08:57:41;;;;;;;;;20.80;20.80;;;;;25.61;31.12;99436.59;4997781;28;8863;-84
2023/06/19 09:00:11;;;;;;;;;16.80;16.20;;;;;26.18;30.63;99434.38;5008334;28;9066;-86
2023/06/19 09:02:42;;;;;;;;;19.00;17.80;;;;;26.70;30.06;99437.81;4990637;28;8890;-85
2023/06/19 09:05:14;;;;;;;;;21.40;19.20;;;;;25.71;31.53;99438.34;4968781;28;8895;-84
2023/06/19 09:07:46;;;;;;;;;16.60;16.60;;;;;25.63;31.56;99434.63;4937137;28;8863;-84
2023/06/19 09:10:19;;;;;;;;;17.00;17.00;;;;;26.23;30.58;99437.50;4982488;28;8954;-83
2023/06/19 09:12:59;;;;;;;;;16.00;15.60;;;;;25.94;30.77;99440.06;4985548;28;8875;-84
2023/06/19 09:15:31;;;;;;;;;16.20;16.20;;;;;25.64;30.80;99431.81;4980842;28;9610;-85
2023/06/19 09:18:02;;;;;;;;;22.40;22.00;;;;;25.37;31.04;99429.63;4951889;28;8883;-82
2023/06/19 09:20:33;;;;;;;;;18.60;18.60;;;;;26.12;30.43;99429.53;4968876;28;9010;-83
2023/06/19 09:23:04;;;;;;;;;18.00;16.00;;;;;26.28;28.95;99424.47;4984402;28;8913;-84
2023/06/19 09:25:45;;;;;;;;;17.20;17.20;;;;;26.45;28.27;99434.59;4951545;28;8912;-82
2023/06/19 09:28:21;;;;;;;;;16.40;16.40;;;;;26.69;28.38;99422.63;4963963;28;8886;-85
2023/06/19 09:30:54;;;;;;;;;19.80;17.60;;;;;26.80;28.67;99421.66;4964769;28;8968;-82
2023/06/19 09:33:24;;;;;;;;;20.20;19.20;;;;;26.91;28.01;99423.34;4965552;28;8874;-85
2023/06/19 09:35:55;;;;;;;;;16.20;16.20;;;;;27.38;27.65;99420.81;4976116;28;9752;-84
2023/06/19 09:38:27;;;;;;;;;18.60;17.40;;;;;26.43;27.85;99425.78;4971509;28;8999;-84
2023/06/19 09:41:01;;;;;;;;;18.80;18.80;;;;;26.15;28.25;99429.25;5003260;28;9591;-85
2023/06/19 09:43:35;;;;;;;;;20.00;18.00;;;;;25.79;27.99;99424.22;4989476;28;8869;-84
2023/06/19 09:46:05;;;;;;;;;19.60;19.60;;;;;26.00;29.50;99421.53;5014176;28;8876;-83
2023/06/19 09:48:35;;;;;;;;;15.60;15.40;;;;;26.01;28.69;99417.00;4996515;28;8865;-83
2023/06/19 09:51:12;;;;;;;;;16.80;15.80;;;;;25.69;27.45;99413.41;5002760;28;9567;-83
2023/06/19 09:53:44;;;;;;;;;13.40;13.40;;;;;26.13;28.04;99418.59;4981291;28;8884;-84
2023/06/19 09:56:15;;;;;;;;;19.00;19.00;;;;;26.76;28.41;99413.00;4980462;28;8868;-84
2023/06/19 09:58:45;;;;;;;;;17.80;17.80;;;;;26.19;28.30;99411.81;5008883;28;8874;-83
2023/06/19 10:01:18;;;;;;;;;16.80;16.00;;;;;26.61;27.40;99423.31;5028763;28;8878;-86
2023/06/19 10:03:47;;;;;;;;;16.60;16.60;;;;;26.96;27.43;99413.00;5029811;28;8872;-83
2023/06/19 10:06:17;;;;;;;;;13.20;13.20;;;;;27.41;27.93;99410.59;5010843;28;8864;-85
2023/06/19 10:08:47;;;;;;;;;16.40;15.00;;;;;27.66;26.91;99405.59;5027862;28;8887;-84
2023/06/19 10:11:18;;;;;;;;;20.40;19.20;;;;;27.85;26.69;99407.38;5044995;28;8864;-83
2023/06/19 10:13:47;;;;;;;;;18.00;18.00;;;;;27.02;26.97;99410.63;5029688;28;8896;-83
2023/06/19 10:16:24;;;;;;;;;21.80;20.80;;;;;26.39;28.21;99404.66;5009138;28;8895;-84
2023/06/19 10:18:58;;;;;;;;;16.60;16.60;;;;;27.02;27.21;99396.28;4992415;28;8981;-86
2023/06/19 10:21:27;;;;;;;;;17.00;15.60;;;;;26.76;26.96;99404.03;5024494;28;9625;-83
2023/06/19 10:23:58;;;;;;;;;16.80;16.80;;;;;25.61;28.54;99412.38;5009986;28;8858;-82
2023/06/19 10:26:33;;;;;;;;;18.20;18.20;;;;;25.59;28.28;99392.81;5013622;28;8983;-83
2023/06/19 10:29:14;;;;;;;;;15.00;13.80;;;;;26.06;26.76;99399.44;5022314;28;8859;-84
2023/06/19 10:31:44;;;;;;;;;15.20;15.20;;;;;26.63;26.69;99397.06;5014380;28;8842;-83
2023/06/19 10:34:13;;;;;;;;;15.00;15.00;;;;;27.12;27.25;99401.66;5047254;28;8836;-84
2023/06/19 10:36:42;;;;;;;;;18.80;18.80;;;;;26.97;27.15;99399.38;4981048;28;8856;-82
2023/06/19 10:39:12;;;;;;;;;19.00;17.40;;;;;26.91;26.62;99394.56;5012629;28;8856;-82
2023/06/19 10:41:43;;;;;;;;;19.00;18.80;;;;;27.30;26.68;99399.09;5028612;28;8937;-83
2023/06/19 10:44:14;;;;;;;;;18.00;17.00;;;;;27.51;26.78;99391.66;5028402;28;8902;-82
2023/06/19 10:46:44;;;;;;;;;17.40;17.40;;;;;26.73;26.24;99389.00;4996128;28;9650;-82
2023/06/19 10:49:14;;;;;;;;;18.20;18.00;;;;;27.32;25.61;99389.88;5011862;28;9033;-83
2023/06/19 10:51:43;;;;;;;;;15.40;14.80;;;;;27.86;27.02;99378.56;5028759;28;8943;-84
2023/06/19 10:54:12;;;;;;;;;24.20;21.00;;;;;27.94;25.25;99376.78;5045166;28;8869;-82
2023/06/19 10:56:44;;;;;;;;;21.80;18.60;;;;;28.41;25.21;99376.72;5011768;28;8903;-82
2023/06/19 10:59:13;;;;;;;;;14.60;14.60;;;;;27.12;27.03;99386.34;5012576;28;8879;-82
2023/06/19 11:01:45;;;;;;;;;20.60;20.40;;;;;27.07;26.90;99383.22;5012646;28;8963;-83
2023/06/19 11:04:16;;;;;;;;;18.80;18.60;;;;;27.75;26.89;99382.28;5028621;28;8895;-81
2023/06/19 11:06:47;;;;;;;;;17.60;17.00;;;;;28.07;24.96;99376.44;5027714;28;8890;-82
2023/06/19 11:09:16;;;;;;;;;17.80;16.20;;;;;28.35;25.55;99384.59;4978870;28;8957;-82
2023/06/19 11:11:48;;;;;;;;;18.80;18.80;;;;;28.84;24.91;99377.03;5011935;28;9019;-81
2023/06/19 11:14:17;;;;;;;;;27.00;25.25;;;;;28.20;25.71;99376.97;5030610;28;8983;-82
2023/06/19 11:16:48;;;;;;;;;18.80;18.00;;;;;27.84;25.50;99378.69;5030432;28;8860;-82
2023/06/19 11:19:19;;;;;;;;;19.00;18.40;;;;;27.61;26.32;99373.66;5028858;28;8856;-83
2023/06/19 11:21:50;;;;;;;;;20.00;19.20;;;;;27.08;25.79;99381.38;5030182;28;9618;-81
2023/06/19 11:24:20;;;;;;;;;19.60;16.60;;;;;27.93;26.44;99367.00;5045842;28;8994;-81
2023/06/19 11:26:51;;;;;;;;;16.40;16.40;;;;;28.51;25.18;99368.53;4987945;28;8876;-80
2023/06/19 11:29:22;;;;;;;;;21.40;21.20;;;;;28.44;25.78;99366.59;4988001;28;8876;-80
2023/06/19 11:31:53;;;;;;;;;18.60;16.80;;;;;28.83;23.80;99361.78;5004366;28;9024;-81
2023/06/19 11:34:32;;;;;;;;;20.60;20.60;;;;;29.16;23.63;99357.56;4988037;28;8986;-81
2023/06/19 11:37:02;;;;;;;;;24.20;22.00;;;;;29.32;24.77;99361.38;4971570;28;8975;-81
2023/06/19 11:39:31;;;;;;;;;17.60;17.60;;;;;29.72;23.61;99359.97;4955276;28;9015;-82
2023/06/19 11:42:02;;;;;;;;;23.20;23.20;;;;;28.91;24.23;99364.56;4988849;28;8845;-80
2023/06/19 11:44:31;;;;;;;;;19.20;18.60;;;;;28.67;24.71;99361.63;4986879;28;8891;-81
2023/06/19 11:47:02;;;;;;;;;24.00;21.60;;;;;28.35;25.22;99350.31;4971095;28;9564;-82